createdAt,value
2022-09-18T00:00:45.142Z,1.48
2022-09-18T00:03:13.020Z,1.77
2022-09-18T00:05:40.862Z,1.58
2022-09-18T00:08:09.092Z,1.83
2022-09-18T00:10:42.334Z,1.65
2022-09-18T00:13:10.182Z,1.47
2022-09-18T00:15:38.455Z,1.50
2022-09-18T00:18:06.896Z,1.50
2022-09-18T00:20:34.702Z,1.60
2022-09-18T00:23:02.453Z,1.60
2022-09-18T00:25:30.312Z,1.58
2022-09-18T00:27:59.526Z,1.33
2022-09-18T00:30:27.353Z,1.30
2022-09-18T00:32:55.177Z,1.80
2022-09-18T00:35:23.005Z,1.60
2022-09-18T00:37:50.759Z,1.92
2022-09-18T00:40:18.975Z,1.48
2022-09-18T00:42:46.858Z,1.40
2022-09-18T00:45:16.136Z,1.63
2022-09-18T00:47:45.852Z,1.63
2022-09-18T00:50:17.954Z,1.40
2022-09-18T00:52:48.408Z,1.60
2022-09-18T00:55:17.100Z,1.52
2022-09-18T00:57:48.056Z,1.95
2022-09-18T01:00:17.271Z,1.70
2022-09-18T01:02:46.739Z,1.60
2022-09-18T01:05:16.073Z,2.22
2022-09-18T01:07:51.019Z,1.83
2022-09-18T01:10:27.100Z,1.55
2022-09-18T01:12:57.127Z,1.85
2022-09-18T01:15:30.007Z,1.67
2022-09-18T01:18:04.280Z,1.60
2022-09-18T01:20:41.884Z,1.80
2022-09-18T01:23:15.146Z,1.30
2022-09-18T01:25:51.717Z,1.57
2022-09-18T01:28:23.310Z,1.65
2022-09-18T01:30:55.427Z,1.65
2022-09-18T01:33:27.089Z,1.90
2022-09-18T01:35:58.368Z,1.30
2022-09-18T01:38:30.311Z,1.30
2022-09-18T01:41:01.447Z,2.17
2022-09-18T01:43:31.897Z,1.85
2022-09-18T01:46:04.573Z,1.88
2022-09-18T01:48:36.939Z,1.73
2022-09-18T01:51:08.840Z,1.35
2022-09-18T01:53:40.877Z,1.50
2022-09-18T01:56:12.055Z,1.50
2022-09-18T01:58:41.398Z,1.50
2022-09-18T02:01:13.191Z,1.30
2022-09-18T02:03:45.395Z,1.58
2022-09-18T02:06:16.609Z,1.40
2022-09-18T02:08:47.898Z,1.80
2022-09-18T02:11:17.729Z,1.42
2022-09-18T02:13:48.953Z,1.70
2022-09-18T02:16:21.391Z,1.63
2022-09-18T02:18:53.985Z,1.25
2022-09-18T02:21:25.188Z,1.50
2022-09-18T02:23:54.995Z,1.13
2022-09-18T02:26:23.528Z,1.25
2022-09-18T02:28:54.446Z,1.45
2022-09-18T02:31:22.378Z,1.48
2022-09-18T02:33:53.470Z,1.13
2022-09-18T02:36:28.750Z,1.10
2022-09-18T02:39:02.702Z,1.30
2022-09-18T02:41:34.923Z,1.20
2022-09-18T02:44:07.815Z,1.00
2022-09-18T02:46:40.704Z,1.35
2022-09-18T02:49:11.281Z,1.15
2022-09-18T02:51:44.350Z,1.08
2022-09-18T02:54:13.973Z,1.35
2022-09-18T02:56:45.129Z,1.25
2022-09-18T02:59:18.329Z,1.30
2022-09-18T03:01:52.467Z,1.20
2022-09-18T03:04:23.060Z,1.25
2022-09-18T03:07:08.273Z,1.30
2022-09-18T03:09:41.991Z,1.33
2022-09-18T03:12:09.934Z,0.95
2022-09-18T03:14:47.859Z,1.10
2022-09-18T03:17:15.612Z,1.17
2022-09-18T03:19:45.895Z,1.23
2022-09-18T03:22:14.421Z,1.40
2022-09-18T03:24:43.318Z,1.02
2022-09-18T03:27:11.750Z,1.20
2022-09-18T03:29:39.527Z,1.20
2022-09-18T03:32:08.890Z,1.15
2022-09-18T03:34:42.766Z,1.08
2022-09-18T03:37:10.991Z,1.00
2022-09-18T03:39:39.240Z,1.10
2022-09-18T03:42:10.012Z,1.08
2022-09-18T03:44:38.039Z,1.27
2022-09-18T03:47:16.476Z,1.20
2022-09-18T03:49:46.642Z,1.20
2022-09-18T03:52:14.486Z,1.10
2022-09-18T03:54:54.929Z,0.95
2022-09-18T03:57:41.518Z,1.38
2022-09-18T04:00:38.559Z,1.25
2022-09-18T04:03:15.882Z,1.20
2022-09-18T04:06:16.201Z,1.20
2022-09-18T04:09:10.726Z,1.10
2022-09-18T04:11:45.263Z,1.23
2022-09-18T04:14:13.687Z,1.08
2022-09-18T04:16:41.514Z,1.00
2022-09-18T04:19:11.409Z,1.42
2022-09-18T04:21:40.227Z,0.93
2022-09-18T04:24:08.048Z,1.05
2022-09-18T04:26:37.151Z,1.63
2022-09-18T04:29:06.102Z,1.08
2022-09-18T04:31:36.007Z,1.05
2022-09-18T04:34:07.892Z,1.40
2022-09-18T04:36:37.464Z,1.20
2022-09-18T04:39:07.677Z,1.10
2022-09-18T04:41:36.895Z,1.15
2022-09-18T04:44:06.497Z,1.05
2022-09-18T04:46:34.519Z,2.30
2022-09-18T04:49:03.625Z,1.30
2022-09-18T04:51:31.619Z,1.48
2022-09-18T04:54:02.567Z,1.63
2022-09-18T04:56:30.774Z,1.33
2022-09-18T04:58:59.995Z,1.23
2022-09-18T05:01:28.037Z,1.08
2022-09-18T05:03:55.940Z,1.00
2022-09-18T05:06:31.122Z,0.80
2022-09-18T05:09:02.923Z,0.90
2022-09-18T05:11:30.890Z,0.90
2022-09-18T05:13:58.702Z,0.80
2022-09-18T05:16:30.515Z,0.98
2022-09-18T05:19:18.370Z,0.93
2022-09-18T05:21:46.425Z,0.85
2022-09-18T05:24:15.748Z,0.90
2022-09-18T05:26:43.505Z,1.00
2022-09-18T05:29:11.590Z,0.80
2022-09-18T05:31:42.004Z,0.95
2022-09-18T05:34:10.217Z,0.77
2022-09-18T05:36:38.043Z,0.80
2022-09-18T05:39:07.405Z,0.93
